Alton, NY

3:08 AM EDT on September 03, 2014 (GMT -0400)
Lyons | Change Station
CLOSE
Current Station
Personal Weather Station
Location: Lyons, NY
Elevation: 503 ft
Nearby Weather Stations

Elev 503 ft 43.14 °N, 77.00 °W | Updated 6 seconds ago

Mostly Cloudy
Mostly Cloudy
63.1 °F
Feels Like 63.1 °F
N
0.0
Wind Variable Wind from SSW
Gusts 0.0 mph

Today
High -- | Low -- °F
--% Chance of Precip.
Yesterday
High -- | Low -- °F
Precip. -- in
6:34 AM 7:39 PM
First Quarter, 59% visible
Pressure 29.90 in
Visibility 3.0 miles
Clouds Overcast 200 ft
Dew Point 61 °F
Humidity 93%
Rainfall 0.00 in
Snow Depth Not available.
UV 0 out of 12
Pollen 7.00 out of 12
Air Quality Not available.
Flu Activity Not available.
METAR KFZY 030654Z AUTO 27007KT 3SM BR OVC002 18/17 A2991 RMK AO2 SLP124 T01780172

More Conditions Fewer Conditions

Pressure 29.90 in
Visibility 3.0 miles
Clouds Overcast 200 ft
Dew Point 61 °F
Humidity 93%
Rainfall 0.00 in
Snow Depth Not available.
UV 0 out of 12
Pollen 7.00 out of 12
Air Quality Not available.
Flu Activity Not available.
METAR KFZY 030654Z AUTO 27007KT 3SM BR OVC002 18/17 A2991 RMK AO2 SLP124 T01780172

More Conditions Fewer Conditions

10-Day Weather Forecast

Almanac

Astronomy

Sep. 03, 2014 Rise Set
Actual Time 6:34 AM EDT 7:39 PM EDT
Civil Twilight 6:05 AM EDT 8:08 PM EDT
Nautical Twilight 5:30 AM EDT 8:43 PM EDT
Astronomical Twilight 4:53 AM EDT 9:19 PM EDT
Moon 3:24 PM EDT 12:21 AM EDT
Length of Visible Light 14h 03m
Length of Day
13h 05m
Tomorrow will be 2m 51s shorter.
First Quarter, 59% of the Moon is Illuminated
Today
First Quarter
Sep 8
Full
Sep 15
Last Quarter
Sep 24
New
Oct 1
First Quarter

Today's Extremes

State Highs State Lows

Community

WunderPhotos

Upload Photos

1,749,888 photos uploaded!

Nearby

Air Quality

  Air Quality AQ Index Pollutant
Wednesday Good
PM2.5
Wednesday Good
OZONE

Snow Depth

Station Depth Elevation
No new snow has been reported.

Earthquake Activity

City Distance Mag. Time & Date
No recent earthquake activity has been reported nearby.
Minimum magnitude displayed is 2.5.

Coastal Water Temperatures

Place Temperature
Alexandria Bay, NY 69.1 °F
Ogdensburg, NY 66.0 °F

Nearby Weather Stations